createdAt,value
2023-02-12T00:01:28.704Z,103082.44
2023-02-12T00:03:58.057Z,103093.28
2023-02-12T00:06:27.788Z,103093.94
2023-02-12T00:08:56.897Z,103098.81
2023-02-12T00:11:35.486Z,103100.88
2023-02-12T00:14:05.650Z,103101.06
2023-02-12T00:16:32.646Z,103108.78
2023-02-12T00:19:00.892Z,103110.22
2023-02-12T00:21:30.991Z,103113.69
2023-02-12T00:24:00.439Z,103118.00
2023-02-12T00:26:27.416Z,103114.75
2023-02-12T00:28:57.840Z,103121.50
2023-02-12T00:31:28.263Z,103120.84
2023-02-12T00:33:56.424Z,103115.41
2023-02-12T00:36:26.815Z,103119.75
2023-02-12T00:38:55.298Z,103120.06
2023-02-12T00:41:23.255Z,103120.28
2023-02-12T00:43:51.821Z,103120.59
2023-02-12T00:46:19.493Z,103116.72
2023-02-12T00:48:48.995Z,103122.13
2023-02-12T00:51:18.195Z,103120.84
2023-02-12T00:53:47.496Z,103129.06
2023-02-12T00:56:16.755Z,103136.22
2023-02-12T00:58:43.819Z,103126.69
2023-02-12T01:01:10.910Z,103120.19
2023-02-12T01:03:40.342Z,103127.34
2023-02-12T01:06:07.807Z,103134.94
2023-02-12T01:08:34.921Z,103133.09
2023-02-12T01:11:06.745Z,103136.34
2023-02-12T01:13:37.317Z,103132.09
2023-02-12T01:16:10.658Z,103128.53
2023-02-12T01:18:38.831Z,103128.19
2023-02-12T01:21:15.264Z,103126.34
2023-02-12T01:23:43.386Z,103122.00
2023-02-12T01:26:14.016Z,103127.19
2023-02-12T01:28:43.525Z,103127.63
2023-02-12T01:31:21.120Z,103133.09
2023-02-12T01:33:50.290Z,103135.09
2023-02-12T01:36:17.431Z,103136.41
2023-02-12T01:38:44.957Z,103140.09
2023-02-12T01:41:19.410Z,103137.44
2023-02-12T01:44:08.545Z,103141.50
2023-02-12T01:46:35.797Z,103131.66
2023-02-12T01:49:05.653Z,103142.75
2023-02-12T01:51:36.894Z,103141.63
2023-02-12T01:54:11.409Z,103137.94
2023-02-12T01:56:39.309Z,103140.44
2023-02-12T01:59:06.568Z,103136.88
2023-02-12T02:01:37.169Z,103136.88
2023-02-12T02:04:17.838Z,103139.25
2023-02-12T02:07:00.540Z,103146.59
2023-02-12T02:09:34.425Z,103154.19
2023-02-12T02:12:20.440Z,103158.75
2023-02-12T02:14:53.451Z,103150.31
2023-02-12T02:17:26.270Z,103152.34
2023-02-12T02:20:30.906Z,103152.97
2023-02-12T02:23:09.868Z,103156.94
2023-02-12T02:26:09.472Z,103155.00
2023-02-12T02:29:19.547Z,103165.38
2023-02-12T02:32:03.589Z,103164.66
2023-02-12T02:35:01.445Z,103160.34
2023-02-12T02:38:02.134Z,103170.06
2023-02-12T02:40:53.726Z,103168.31
2023-02-12T02:43:44.736Z,103165.31
2023-02-12T02:46:18.195Z,103167.47
2023-02-12T02:48:55.820Z,103177.97
2023-02-12T02:51:40.432Z,103184.38
2023-02-12T02:54:35.021Z,103185.84
2023-02-12T02:57:20.909Z,103186.72
2023-02-12T03:00:07.786Z,103187.72
2023-02-12T03:02:44.928Z,103187.38
2023-02-12T03:05:27.292Z,103193.25
2023-02-12T03:08:24.360Z,103193.91
2023-02-12T03:11:09.401Z,103186.75
2023-02-12T03:13:56.804Z,103196.19
2023-02-12T03:16:33.027Z,103195.22
2023-02-12T03:19:08.161Z,103196.09
2023-02-12T03:21:47.466Z,103192.63
2023-02-12T03:24:30.986Z,103191.53
2023-02-12T03:27:13.709Z,103206.06
2023-02-12T03:29:43.165Z,103205.63
2023-02-12T03:32:44.335Z,103207.78
2023-02-12T03:35:17.000Z,103202.00
2023-02-12T03:38:01.837Z,103210.19
2023-02-12T03:40:35.481Z,103217.38
2023-02-12T03:43:17.321Z,103213.34
2023-02-12T03:45:52.202Z,103219.06
2023-02-12T03:48:34.110Z,103214.25
2023-02-12T03:51:17.746Z,103218.25
2023-02-12T03:53:44.889Z,103219.88
2023-02-12T03:56:44.442Z,103227.25
2023-02-12T03:59:12.208Z,103219.84
2023-02-12T04:01:39.420Z,103230.88
2023-02-12T04:04:11.253Z,103223.41
2023-02-12T04:06:38.399Z,103227.72
2023-02-12T04:09:10.653Z,103226.13
2023-02-12T04:11:54.563Z,103222.81
2023-02-12T04:14:43.870Z,103239.41
2023-02-12T04:17:40.640Z,103246.81
2023-02-12T04:21:08.861Z,103248.97
2023-02-12T04:24:07.094Z,103246.44
2023-02-12T04:27:23.281Z,103238.34
2023-02-12T04:30:06.537Z,103235.94
2023-02-12T04:32:58.338Z,103232.00
2023-02-12T04:35:53.750Z,103240.19
2023-02-12T04:38:57.787Z,103249.66
2023-02-12T04:41:26.081Z,103245.66
2023-02-12T04:43:55.529Z,103246.28
2023-02-12T04:46:25.436Z,103240.28
2023-02-12T04:48:58.766Z,103240.28
2023-02-12T04:51:28.370Z,103244.94
2023-02-12T04:53:55.430Z,103246.81
2023-02-12T04:56:26.982Z,103250.19
2023-02-12T04:58:57.707Z,103245.91
2023-02-12T05:01:25.662Z,103257.88
2023-02-12T05:03:55.181Z,103253.72
2023-02-12T05:06:22.144Z,103254.03
2023-02-12T05:08:53.688Z,103256.63
2023-02-12T05:11:20.790Z,103264.53
2023-02-12T05:13:54.129Z,103257.19
2023-02-12T05:16:22.767Z,103255.91
2023-02-12T05:18:52.034Z,103256.19
2023-02-12T05:21:24.506Z,103260.13
2023-02-12T05:23:51.458Z,103253.16
2023-02-12T05:26:21.317Z,103254.72
2023-02-12T05:28:48.401Z,103258.44
2023-02-12T05:31:21.225Z,103262.72
2023-02-12T05:33:50.042Z,103256.25
2023-02-12T05:36:25.769Z,103257.06
2023-02-12T05:38:57.577Z,103260.06
2023-02-12T05:41:25.412Z,103263.53
2023-02-12T05:43:55.431Z,103262.53
2023-02-12T05:46:22.827Z,103270.25
2023-02-12T05:48:52.170Z,103264.69
2023-02-12T05:51:25.180Z,103263.03
2023-02-12T05:53:57.217Z,103266.94
2023-02-12T05:56:34.107Z,103262.13
2023-02-12T05:59:10.067Z,103272.69
2023-02-12T06:01:40.627Z,103278.09
2023-02-12T06:04:16.661Z,103278.88
2023-02-12T06:06:44.509Z,103280.41
2023-02-12T06:09:13.217Z,103279.84
2023-02-12T06:11:45.911Z,103277.34
2023-02-12T06:14:17.343Z,103281.47
2023-02-12T06:16:50.726Z,103277.50
2023-02-12T06:19:25.270Z,103289.50
2023-02-12T06:21:54.752Z,103288.06
2023-02-12T06:24:26.115Z,103288.72
2023-02-12T06:26:55.630Z,103285.75
2023-02-12T06:29:26.287Z,103293.16
2023-02-12T06:31:55.635Z,103290.66
2023-02-12T06:34:25.271Z,103294.81
2023-02-12T06:36:52.214Z,103299.75
2023-02-12T06:39:19.154Z,103298.22
2023-02-12T06:41:46.158Z,103304.00
2023-02-12T06:44:13.706Z,103305.16
2023-02-12T06:46:48.171Z,103310.59
2023-02-12T06:49:21.329Z,103316.44
2023-02-12T06:51:50.862Z,103317.16
2023-02-12T06:54:18.549Z,103322.56
2023-02-12T06:56:48.058Z,103313.09
2023-02-12T06:59:21.148Z,103308.56
2023-02-12T07:01:48.171Z,103305.38
2023-02-12T07:04:15.319Z,103321.78
2023-02-12T07:06:44.982Z,103322.72
2023-02-12T07:09:14.588Z,103328.00
2023-02-12T07:11:43.924Z,103329.34
2023-02-12T07:14:17.802Z,103323.72
2023-02-12T07:16:47.380Z,103344.41
2023-02-12T07:19:17.006Z,103335.91
2023-02-12T07:21:44.276Z,103340.16
2023-02-12T07:24:12.681Z,103344.44
2023-02-12T07:26:42.374Z,103339.97
2023-02-12T07:29:09.504Z,103344.41
2023-02-12T07:31:36.776Z,103334.13
2023-02-12T07:34:03.851Z,103338.66
2023-02-12T07:36:33.207Z,103339.72
2023-02-12T07:39:01.587Z,103336.38
2023-02-12T07:41:32.133Z,103339.44
2023-02-12T07:44:07.508Z,103338.94
2023-02-12T07:46:38.717Z,103337.59
2023-02-12T07:49:12.933Z,103340.34
2023-02-12T07:51:42.792Z,103341.47
2023-02-12T07:54:14.275Z,103347.00
2023-02-12T07:56:43.908Z,103344.38
2023-02-12T07:59:16.775Z,103340.06
2023-02-12T08:01:51.736Z,103342.97
2023-02-12T08:04:23.291Z,103347.81
2023-02-12T08:06:54.992Z,103350.81
2023-02-12T08:09:28.049Z,103353.25
2023-02-12T08:11:57.079Z,103357.56
2023-02-12T08:14:24.197Z,103358.72
2023-02-12T08:16:52.291Z,103353.38
2023-02-12T08:19:26.235Z,103355.09
2023-02-12T08:21:57.844Z,103357.00
2023-02-12T08:24:25.781Z,103359.41
2023-02-12T08:26:53.039Z,103363.59
2023-02-12T08:29:26.567Z,103365.63
2023-02-12T08:32:02.702Z,103368.31
2023-02-12T08:34:34.892Z,103374.09
2023-02-12T08:37:06.791Z,103375.22
2023-02-12T08:39:33.885Z,103376.09
2023-02-12T08:42:05.849Z,103377.03
2023-02-12T08:44:35.561Z,103371.13
2023-02-12T08:47:06.762Z,103380.56
2023-02-12T08:49:38.382Z,103378.94
2023-02-12T08:52:08.861Z,103375.16
2023-02-12T08:54:40.456Z,103388.50
2023-02-12T08:57:07.358Z,103388.38
2023-02-12T08:59:34.391Z,103378.91
2023-02-12T09:02:02.910Z,103393.47
2023-02-12T09:04:30.267Z,103384.38
2023-02-12T09:06:57.248Z,103396.34
2023-02-12T09:09:24.697Z,103401.34
2023-02-12T09:11:51.819Z,103400.34
2023-02-12T09:14:23.824Z,103407.63
2023-02-12T09:16:55.713Z,103413.34
2023-02-12T09:19:23.048Z,103413.66
2023-02-12T09:21:57.574Z,103413.25
2023-02-12T09:24:30.101Z,103409.81
2023-02-12T09:26:57.152Z,103404.69
2023-02-12T09:29:24.176Z,103405.47
2023-02-12T09:31:51.219Z,103421.94
2023-02-12T09:34:20.788Z,103411.75
2023-02-12T09:36:47.710Z,103413.66
2023-02-12T09:39:14.623Z,103420.25
2023-02-12T09:42:12.450Z,103418.34
2023-02-12T09:45:18.086Z,103417.00
2023-02-12T09:47:58.850Z,103424.03
2023-02-12T09:50:43.666Z,103421.13
2023-02-12T09:53:21.748Z,103423.38
2023-02-12T09:55:55.018Z,103424.38
2023-02-12T09:58:59.077Z,103428.50
2023-02-12T10:01:29.190Z,103430.09
2023-02-12T10:03:59.878Z,103434.41
2023-02-12T10:06:37.573Z,103431.50
2023-02-12T10:09:47.882Z,103427.13
2023-02-12T10:12:25.853Z,103435.91
2023-02-12T10:15:09.033Z,103432.91
2023-02-12T10:17:45.220Z,103425.94
2023-02-12T10:20:32.194Z,103427.25
2023-02-12T10:23:46.366Z,103430.53
2023-02-12T10:26:40.870Z,103428.13
2023-02-12T10:29:32.480Z,103435.41
2023-02-12T10:32:27.715Z,103430.06
2023-02-12T10:35:00.230Z,103435.53
2023-02-12T10:37:40.619Z,103432.00
2023-02-12T10:40:32.831Z,103434.94
2023-02-12T10:43:01.863Z,103430.91
2023-02-12T10:45:40.610Z,103429.66
2023-02-12T10:48:12.550Z,103421.47
2023-02-12T10:51:08.528Z,103424.81
2023-02-12T10:53:43.030Z,103420.31
2023-02-12T10:56:12.897Z,103419.28
2023-02-12T10:59:00.802Z,103422.78
2023-02-12T11:01:38.315Z,103423.25
2023-02-12T11:04:31.192Z,103418.50
2023-02-12T11:07:05.874Z,103427.19
2023-02-12T11:09:46.268Z,103418.53
2023-02-12T11:12:42.443Z,103416.22
2023-02-12T11:15:24.290Z,103414.28
2023-02-12T11:18:05.529Z,103415.22
2023-02-12T11:20:55.817Z,103421.25
2023-02-12T11:23:36.058Z,103413.53
2023-02-12T11:26:20.363Z,103406.81
2023-02-12T11:28:55.101Z,103397.38
2023-02-12T11:31:28.035Z,103403.81
2023-02-12T11:34:17.829Z,103409.53
2023-02-12T11:36:52.976Z,103402.81
2023-02-12T11:39:36.927Z,103405.16
2023-02-12T11:42:15.334Z,103408.03
2023-02-12T11:44:49.360Z,103405.16
2023-02-12T11:47:24.172Z,103405.88
2023-02-12T11:50:05.785Z,103407.72
2023-02-12T11:52:37.370Z,103401.59
2023-02-12T11:55:22.528Z,103398.09
2023-02-12T11:57:53.576Z,103400.25
2023-02-12T12:00:29.526Z,103403.16
2023-02-12T12:03:46.086Z,103390.44
2023-02-12T12:06:38.282Z,103387.47
2023-02-12T12:09:29.043Z,103388.59
2023-02-12T12:12:21.820Z,103391.13
2023-02-12T12:15:20.887Z,103382.28
2023-02-12T12:18:19.229Z,103388.91
2023-02-12T12:20:57.583Z,103389.75
2023-02-12T12:24:06.081Z,103382.75
2023-02-12T12:26:34.903Z,103370.75
2023-02-12T12:29:26.662Z,103376.78
2023-02-12T12:32:05.807Z,103375.28
2023-02-12T12:34:34.824Z,103365.81
2023-02-12T12:37:33.373Z,103364.47
2023-02-12T12:40:42.818Z,103369.25
2023-02-12T12:43:12.627Z,103368.84
2023-02-12T12:46:31.327Z,103370.78
2023-02-12T12:49:33.043Z,103373.47
2023-02-12T12:52:28.150Z,103371.22
2023-02-12T12:55:19.148Z,103356.50
2023-02-12T12:58:13.693Z,103357.94
2023-02-12T13:01:01.992Z,103347.59
2023-02-12T13:04:25.132Z,103345.63
2023-02-12T13:06:54.791Z,103348.66
2023-02-12T13:10:06.489Z,103340.94
2023-02-12T13:12:50.677Z,103336.53
2023-02-12T13:15:53.901Z,103340.88
2023-02-12T13:18:48.646Z,103340.19
2023-02-12T13:21:37.410Z,103342.63
2023-02-12T13:24:46.023Z,103331.75
2023-02-12T13:27:20.769Z,103339.38
2023-02-12T13:30:01.913Z,103337.66
2023-02-12T13:32:40.678Z,103330.06
2023-02-12T13:35:13.790Z,103335.84
2023-02-12T13:37:45.158Z,103331.00
2023-02-12T13:40:23.417Z,103325.16
2023-02-12T13:43:15.120Z,103335.56
2023-02-12T13:46:12.109Z,103322.53
2023-02-12T13:48:50.980Z,103324.56
2023-02-12T13:51:38.957Z,103320.41
2023-02-12T13:54:14.906Z,103325.38
2023-02-12T13:56:48.354Z,103321.78
2023-02-12T13:59:34.173Z,103320.06
2023-02-12T14:02:05.731Z,103320.03
2023-02-12T14:04:59.897Z,103312.16
2023-02-12T14:07:49.499Z,103324.75
2023-02-12T14:10:42.708Z,103313.25
2023-02-12T14:13:22.368Z,103310.63
2023-02-12T14:15:57.950Z,103307.69
2023-02-12T14:18:35.688Z,103312.38
2023-02-12T14:21:11.933Z,103309.97
2023-02-12T14:23:44.625Z,103310.16
2023-02-12T14:26:36.621Z,103314.28
2023-02-12T14:29:17.160Z,103309.28
2023-02-12T14:31:44.358Z,103317.09
2023-02-12T14:34:11.395Z,103313.88
2023-02-12T14:36:49.109Z,103322.84
2023-02-12T14:39:24.683Z,103318.94
2023-02-12T14:42:15.813Z,103311.09
2023-02-12T14:44:56.347Z,103324.34
2023-02-12T14:47:31.411Z,103318.72
2023-02-12T14:50:12.161Z,103319.94
2023-02-12T14:52:44.923Z,103321.91
2023-02-12T14:55:24.463Z,103315.22
2023-02-12T14:58:00.410Z,103319.31
2023-02-12T15:00:31.897Z,103319.47
2023-02-12T15:03:31.987Z,103314.22
2023-02-12T15:06:21.435Z,103312.59
2023-02-12T15:08:56.395Z,103326.75
2023-02-12T15:11:45.458Z,103320.09
2023-02-12T15:14:35.280Z,103322.94
2023-02-12T15:17:16.320Z,103325.09
2023-02-12T15:20:02.536Z,103324.56
2023-02-12T15:22:42.188Z,103327.19
2023-02-12T15:25:29.990Z,103328.25
2023-02-12T15:28:19.969Z,103330.78
2023-02-12T15:30:47.259Z,103333.69
2023-02-12T15:33:30.381Z,103331.56
2023-02-12T15:35:58.259Z,103338.50
2023-02-12T15:38:41.445Z,103342.63
2023-02-12T15:41:14.511Z,103344.78
2023-02-12T15:43:43.893Z,103339.34
2023-02-12T15:46:18.265Z,103338.28
2023-02-12T15:48:45.627Z,103334.81
2023-02-12T15:51:34.990Z,103339.56
2023-02-12T15:54:07.186Z,103338.34
2023-02-12T15:56:41.323Z,103338.97
2023-02-12T15:59:22.167Z,103344.19
2023-02-12T16:02:05.673Z,103337.28
2023-02-12T16:04:42.021Z,103344.56
2023-02-12T16:07:13.357Z,103348.25
2023-02-12T16:09:44.818Z,103341.38
2023-02-12T16:12:17.538Z,103339.09
2023-02-12T16:14:59.108Z,103344.44
2023-02-12T16:17:26.147Z,103344.66
2023-02-12T16:19:58.264Z,103355.75
2023-02-12T16:22:34.579Z,103349.03
2023-02-12T16:25:02.652Z,103348.59
2023-02-12T16:27:35.264Z,103347.19
2023-02-12T16:30:24.937Z,103352.84
2023-02-12T16:32:52.525Z,103351.41
2023-02-12T16:35:19.473Z,103350.97
2023-02-12T16:37:56.577Z,103351.84
2023-02-12T16:40:28.852Z,103357.94
2023-02-12T16:42:58.553Z,103354.78
2023-02-12T16:45:28.874Z,103365.66
2023-02-12T16:48:08.444Z,103358.81
2023-02-12T16:50:39.506Z,103367.19
2023-02-12T16:53:31.527Z,103367.72
2023-02-12T16:56:00.384Z,103369.47
2023-02-12T16:58:29.895Z,103364.47
2023-02-12T17:01:06.785Z,103374.88
2023-02-12T17:03:35.008Z,103387.47
2023-02-12T17:06:04.701Z,103386.59
2023-02-12T17:08:34.002Z,103389.84
2023-02-12T17:11:01.051Z,103390.97
2023-02-12T17:13:28.157Z,103388.56
2023-02-12T17:16:06.590Z,103389.00
2023-02-12T17:18:35.891Z,103386.19
2023-02-12T17:21:09.695Z,103384.22
2023-02-12T17:23:41.203Z,103386.84
2023-02-12T17:26:09.820Z,103393.25
2023-02-12T17:28:36.947Z,103398.44
2023-02-12T17:31:06.302Z,103394.84
2023-02-12T17:33:33.426Z,103399.94
2023-02-12T17:36:00.733Z,103394.72
2023-02-12T17:38:28.022Z,103398.22
2023-02-12T17:40:57.942Z,103398.22
2023-02-12T17:43:27.830Z,103398.09
2023-02-12T17:45:55.262Z,103404.81
2023-02-12T17:48:25.002Z,103403.09
2023-02-12T17:51:05.384Z,103400.28
2023-02-12T17:53:32.669Z,103399.22
2023-02-12T17:56:02.809Z,103392.22
2023-02-12T17:58:29.860Z,103393.06
2023-02-12T18:00:57.346Z,103403.94
2023-02-12T18:03:24.700Z,103399.69
2023-02-12T18:05:51.752Z,103403.13
2023-02-12T18:08:18.687Z,103400.66
2023-02-12T18:10:48.114Z,103407.47
2023-02-12T18:13:17.264Z,103404.47
2023-02-12T18:15:46.587Z,103409.81
2023-02-12T18:18:13.907Z,103407.09
2023-02-12T18:20:41.278Z,103409.66
2023-02-12T18:23:08.831Z,103416.09
2023-02-12T18:25:50.264Z,103421.31
2023-02-12T18:28:17.176Z,103426.97
2023-02-12T18:30:44.322Z,103424.66
2023-02-12T18:33:13.042Z,103421.78
2023-02-12T18:35:41.724Z,103428.28
2023-02-12T18:38:08.679Z,103426.63
2023-02-12T18:40:35.686Z,103431.84
2023-02-12T18:43:02.591Z,103426.72
2023-02-12T18:45:31.966Z,103437.72
2023-02-12T18:48:01.304Z,103441.78
2023-02-12T18:50:28.847Z,103432.66
2023-02-12T18:52:58.417Z,103439.06
2023-02-12T18:55:25.322Z,103441.16
2023-02-12T18:57:54.786Z,103443.72
2023-02-12T19:00:22.197Z,103438.84
2023-02-12T19:02:49.094Z,103442.34
2023-02-12T19:05:18.688Z,103436.16
2023-02-12T19:07:48.679Z,103436.97
2023-02-12T19:10:18.416Z,103437.88
2023-02-12T19:12:49.312Z,103435.44
2023-02-12T19:15:20.312Z,103432.03
2023-02-12T19:17:50.202Z,103429.03
2023-02-12T19:20:17.150Z,103441.22
2023-02-12T19:22:46.409Z,103428.88
2023-02-12T19:25:13.514Z,103437.53
2023-02-12T19:27:43.488Z,103430.03
2023-02-12T19:30:13.338Z,103428.47
2023-02-12T19:32:40.641Z,103433.34
2023-02-12T19:35:07.704Z,103435.78
2023-02-12T19:37:34.673Z,103433.69
2023-02-12T19:40:03.680Z,103444.50
2023-02-12T19:42:31.786Z,103442.53
2023-02-12T19:44:59.345Z,103441.84
2023-02-12T19:47:26.874Z,103443.75
2023-02-12T19:49:56.709Z,103436.69
2023-02-12T19:52:27.032Z,103441.38
2023-02-12T19:54:54.309Z,103431.84
2023-02-12T19:57:21.202Z,103445.94
2023-02-12T19:59:51.078Z,103436.50
2023-02-12T20:02:20.809Z,103438.53
2023-02-12T20:04:50.207Z,103435.59
2023-02-12T20:07:17.114Z,103445.00
2023-02-12T20:09:44.196Z,103432.31
2023-02-12T20:12:11.212Z,103440.25
2023-02-12T20:14:38.135Z,103436.16
2023-02-12T20:17:05.874Z,103441.00
2023-02-12T20:19:37.130Z,103441.63
2023-02-12T20:22:07.011Z,103442.50
2023-02-12T20:24:35.383Z,103448.97
2023-02-12T20:27:06.020Z,103439.94
2023-02-12T20:29:37.217Z,103444.19
2023-02-12T20:32:05.045Z,103444.78
2023-02-12T20:34:39.796Z,103445.19
2023-02-12T20:37:17.224Z,103446.22
2023-02-12T20:39:47.979Z,103450.56
2023-02-12T20:42:14.907Z,103436.97
2023-02-12T20:44:41.826Z,103442.81
2023-02-12T20:47:08.672Z,103439.09
2023-02-12T20:49:39.028Z,103442.41
2023-02-12T20:52:08.359Z,103440.25
2023-02-12T20:54:35.280Z,103442.41
2023-02-12T20:57:06.685Z,103443.38
2023-02-12T20:59:34.679Z,103445.72
2023-02-12T21:02:01.572Z,103438.16
2023-02-12T21:04:32.226Z,103436.22
2023-02-12T21:07:02.274Z,103437.09
2023-02-12T21:09:30.440Z,103431.97
2023-02-12T21:12:01.878Z,103433.69
2023-02-12T21:14:28.762Z,103442.25
2023-02-12T21:16:57.062Z,103436.41
2023-02-12T21:19:27.094Z,103433.09
2023-02-12T21:21:55.447Z,103436.56
2023-02-12T21:24:28.607Z,103435.91
2023-02-12T21:26:58.684Z,103426.22
2023-02-12T21:29:27.465Z,103428.06
2023-02-12T21:31:54.988Z,103434.91
2023-02-12T21:34:23.708Z,103434.72
2023-02-12T21:36:57.188Z,103436.28
2023-02-12T21:39:27.750Z,103430.63
2023-02-12T21:41:59.912Z,103433.91
2023-02-12T21:44:27.290Z,103442.03
2023-02-12T21:46:56.775Z,103440.00
2023-02-12T21:49:27.866Z,103440.47
2023-02-12T21:52:05.931Z,103444.94
2023-02-12T21:54:35.868Z,103437.38
2023-02-12T21:57:05.203Z,103440.19
2023-02-12T21:59:32.654Z,103429.13
2023-02-12T22:02:00.602Z,103425.59
2023-02-12T22:04:27.997Z,103428.13
2023-02-12T22:06:56.424Z,103428.69
2023-02-12T22:09:25.895Z,103423.41
2023-02-12T22:11:53.039Z,103412.94
2023-02-12T22:14:27.177Z,103418.00
2023-02-12T22:16:56.561Z,103418.09
2023-02-12T22:19:25.926Z,103421.88
2023-02-12T22:21:55.035Z,103412.78
2023-02-12T22:24:26.504Z,103408.88
2023-02-12T22:26:57.257Z,103416.34
2023-02-12T22:29:26.905Z,103413.53
2023-02-12T22:31:53.973Z,103419.84
2023-02-12T22:34:20.933Z,103419.84
2023-02-12T22:36:48.195Z,103413.53
2023-02-12T22:39:22.407Z,103410.06
2023-02-12T22:41:49.721Z,103406.63
2023-02-12T22:44:18.921Z,103406.31
2023-02-12T22:46:48.799Z,103404.97
2023-02-12T22:49:16.967Z,103407.78
2023-02-12T22:51:43.873Z,103406.16
2023-02-12T22:54:17.812Z,103409.81
2023-02-12T22:56:50.135Z,103408.69
2023-02-12T22:59:17.353Z,103413.81
2023-02-12T23:01:46.860Z,103414.31
2023-02-12T23:04:23.935Z,103415.50
2023-02-12T23:06:51.394Z,103415.06
2023-02-12T23:09:19.827Z,103418.72
2023-02-12T23:11:48.237Z,103410.00
2023-02-12T23:14:15.653Z,103411.66
2023-02-12T23:16:42.842Z,103424.47
2023-02-12T23:19:11.101Z,103424.94
2023-02-12T23:21:38.851Z,103423.69
2023-02-12T23:24:06.395Z,103416.50
2023-02-12T23:26:33.429Z,103412.44
2023-02-12T23:29:02.629Z,103416.94
2023-02-12T23:31:30.003Z,103419.16
2023-02-12T23:33:57.076Z,103422.31
2023-02-12T23:36:28.194Z,103419.63
2023-02-12T23:39:06.025Z,103421.16
2023-02-12T23:41:37.777Z,103423.25
2023-02-12T23:44:04.986Z,103427.16
2023-02-12T23:46:32.125Z,103423.50
2023-02-12T23:48:59.214Z,103428.41
2023-02-12T23:51:26.557Z,103419.97
2023-02-12T23:53:55.694Z,103417.06
2023-02-12T23:56:23.396Z,103418.44
2023-02-12T23:58:50.417Z,103416.50
